createdAt,value
2023-06-23T05:24:46.386Z,11.60
2023-06-23T05:27:58.279Z,10.23
2023-06-23T05:31:02.581Z,10.57
2023-06-23T05:34:07.943Z,10.17
2023-06-23T05:37:14.069Z,10.30
2023-06-23T05:40:18.892Z,11.07
2023-06-23T05:43:24.315Z,10.50
2023-06-23T05:46:31.321Z,10.35
2023-06-23T05:50:42.891Z,10.30
2023-06-23T05:53:50.472Z,10.75
2023-06-23T05:57:03.199Z,10.90
2023-06-23T06:00:13.028Z,10.98
2023-06-23T06:03:20.465Z,10.95
2023-06-23T06:06:25.504Z,11.30
2023-06-23T06:09:31.852Z,12.70
2023-06-23T06:12:39.295Z,11.68
2023-06-23T06:15:44.795Z,11.00
2023-06-23T06:18:52.160Z,10.68
2023-06-23T06:22:01.879Z,11.20
2023-06-23T06:25:12.283Z,10.40
2023-06-23T06:28:32.987Z,11.43
2023-06-23T06:36:57.925Z,10.90
2023-06-23T06:40:11.100Z,11.83
2023-06-23T06:43:14.803Z,12.15
2023-06-23T06:46:20.284Z,12.25
2023-06-23T06:49:44.458Z,11.52
2023-06-23T06:52:48.355Z,11.60
2023-06-23T06:55:59.343Z,11.33
2023-06-23T06:59:02.577Z,11.05
2023-06-23T07:02:08.939Z,13.50
2023-06-23T07:05:12.203Z,12.10
2023-06-23T07:08:21.861Z,11.00
2023-06-23T07:11:34.219Z,11.00
2023-06-23T07:14:37.842Z,11.68
2023-06-23T07:17:42.317Z,11.27
2023-06-23T07:20:45.749Z,11.98
2023-06-23T07:23:49.017Z,11.57
2023-06-23T07:31:59.518Z,11.23
2023-06-23T07:35:46.189Z,11.48
2023-06-23T07:39:06.280Z,11.15
2023-06-23T08:15:56.938Z,11.88
2023-06-23T08:19:02.054Z,11.73
2023-06-23T08:22:06.536Z,13.35
2023-06-23T08:25:14.145Z,11.90
2023-06-23T08:28:19.061Z,12.70
2023-06-23T08:31:22.345Z,12.18
2023-06-23T08:34:30.939Z,11.57
2023-06-23T08:37:34.290Z,11.63
2023-06-23T08:40:37.370Z,11.73
2023-06-23T08:43:47.090Z,11.77
2023-06-23T08:50:12.311Z,11.30
2023-06-23T08:58:01.400Z,11.77
2023-06-23T09:01:38.096Z,11.23
2023-06-23T09:09:24.817Z,13.07
2023-06-23T09:13:29.967Z,12.90
2023-06-23T09:16:34.305Z,12.93
2023-06-23T09:24:50.424Z,13.82
2023-06-23T09:28:12.945Z,13.65
2023-06-23T09:31:21.507Z,12.80
2023-06-23T09:35:26.963Z,15.80
2023-06-23T09:38:36.712Z,12.93
2023-06-23T09:41:51.700Z,13.18
2023-06-23T09:44:56.163Z,12.82
2023-06-23T09:48:02.814Z,12.43
2023-06-23T09:51:14.567Z,12.40
2023-06-23T09:54:32.981Z,12.70
2023-06-23T09:57:40.440Z,12.90
2023-06-23T10:01:17.018Z,12.20
2023-06-23T10:04:20.675Z,12.32
2023-06-23T10:07:25.538Z,12.63
2023-06-23T10:10:35.073Z,12.53
2023-06-23T10:13:42.983Z,13.88
2023-06-23T10:16:47.417Z,14.18
2023-06-23T10:19:52.670Z,13.75
2023-06-23T10:23:07.416Z,14.25
2023-06-23T10:26:12.655Z,14.10
2023-06-23T10:29:21.910Z,13.18
2023-06-23T10:32:26.637Z,13.35
2023-06-23T10:35:54.406Z,17.08
2023-06-23T10:40:17.538Z,12.70
2023-06-23T10:43:22.808Z,13.37
2023-06-23T10:46:31.653Z,12.98
2023-06-23T10:49:59.484Z,13.13
2023-06-23T10:53:24.938Z,12.10
2023-06-23T10:56:35.722Z,12.33
2023-06-23T10:59:43.556Z,12.63
2023-06-23T11:02:55.215Z,14.00
2023-06-23T11:05:59.458Z,13.15
2023-06-23T11:09:05.864Z,13.32
2023-06-23T11:12:56.505Z,12.50
2023-06-23T11:16:05.002Z,13.27
2023-06-23T11:19:09.982Z,13.35
2023-06-23T11:22:31.085Z,12.40
2023-06-23T11:29:25.077Z,11.67
2023-06-23T11:32:30.501Z,12.23
2023-06-23T11:41:42.510Z,11.93
2023-06-23T11:54:28.928Z,10.83
2023-06-23T12:02:33.620Z,11.68
2023-06-23T12:05:46.580Z,10.82
2023-06-23T12:08:52.286Z,11.40
2023-06-23T12:15:43.450Z,10.55
2023-06-23T12:19:11.736Z,10.65
2023-06-23T12:32:24.956Z,11.50
2023-06-23T12:41:23.220Z,11.75
2023-06-23T12:44:37.399Z,12.48
2023-06-23T12:47:50.727Z,11.03
2023-06-23T12:51:11.431Z,12.00
2023-06-23T12:54:25.408Z,11.70
2023-06-23T12:57:35.537Z,11.40
